Time;durP1;ratioP1;P1;durP2;ratioP2;P2;SDS_P1;SDS_P2;PMS_P1;PMS_P2;Temp;Humidity;BMP_temperature;BMP_pressure;BME280_temperature;BME280_humidity;BME280_pressure;Samples;Min_cycle;Max_cycle;Signal;HPM_P1;HPM_P2
2023/07/07 00:01:02;;;;;;;16.70;3.55;;;;;;;;;;6123814;23;20022;-93
2023/07/07 00:06:05;;;;;;;18.55;3.83;;;;;;;;;;6153678;23;19923;-49
2023/07/07 00:08:39;;;;;;;13.77;3.38;;;;;;;;;;6180722;23;20025;-48
2023/07/07 00:11:26;;;;;;;12.18;3.65;;;;;;;;;;6181952;23;20025;-53
2023/07/07 00:14:20;;;;;;;20.15;3.88;;;;;;;;;;6181506;23;20325;-47
2023/07/07 00:17:08;;;;;;;17.23;3.50;;;;;;;;;;6180906;23;20017;-48
2023/07/07 00:20:07;;;;;;;21.70;3.97;;;;;;;;;;6181001;23;20087;-53
2023/07/07 00:22:50;;;;;;;26.48;4.07;;;;;;;;;;6179304;23;20081;-57
2023/07/07 00:25:43;;;;;;;11.60;3.35;;;;;;;;;;6181238;23;20025;-58
2023/07/07 00:28:31;;;;;;;14.32;4.00;;;;;;;;;;6180982;23;20017;-56
2023/07/07 00:31:25;;;;;;;20.67;3.97;;;;;;;;;;6180925;23;20094;-59
2023/07/07 00:34:19;;;;;;;12.90;3.70;;;;;;;;;;6180321;23;20462;-59
2023/07/07 00:37:06;;;;;;;15.73;4.00;;;;;;;;;;6181044;23;20409;-57
2023/07/07 00:40:00;;;;;;;16.48;4.03;;;;;;;;;;6180734;23;20025;-47
2023/07/07 00:42:47;;;;;;;26.27;4.25;;;;;;;;;;6181072;23;20524;-50
2023/07/07 00:45:41;;;;;;;21.52;4.63;;;;;;;;;;6180598;23;20025;-50
2023/07/07 00:48:35;;;;;;;17.58;4.60;;;;;;;;;;6181425;23;20029;-61
2023/07/07 00:51:31;;;;;;;19.92;4.38;;;;;;;;;;6178744;23;20083;-60
2023/07/07 00:54:20;;;;;;;16.50;3.65;;;;;;;;;;6179901;23;20102;-60
2023/07/07 00:57:14;;;;;;;15.68;4.38;;;;;;;;;;6181278;23;20025;-61
2023/07/07 01:00:02;;;;;;;21.55;4.60;;;;;;;;;;6180709;23;20071;-60
2023/07/07 01:02:57;;;;;;;17.60;4.30;;;;;;;;;;6181114;23;20777;-60
2023/07/07 01:05:44;;;;;;;;;;;;;;;;;;6179426;23;20021;-60
2023/07/07 01:08:49;;;;;;;29.40;5.40;;;;;;;;;;6179839;23;19916;-63
2023/07/07 01:11:37;;;;;;;19.77;5.32;;;;;;;;;;6181196;23;20084;-63
2023/07/07 01:14:31;;;;;;;21.10;5.00;;;;;;;;;;6180195;23;20583;-63
2023/07/07 01:17:34;;;;;;;19.42;5.45;;;;;;;;;;6180896;23;20025;-59
2023/07/07 01:20:41;;;;;;;17.05;5.40;;;;;;;;;;6180588;23;20021;-63
2023/07/07 01:23:39;;;;;;;22.55;5.22;;;;;;;;;;6179989;23;20029;-63
2023/07/07 01:26:30;;;;;;;16.92;4.78;;;;;;;;;;6180240;23;20021;-62
2023/07/07 01:29:23;;;;;;;26.88;5.53;;;;;;;;;;6179807;23;20545;-63
2023/07/07 01:32:13;;;;;;;18.95;5.68;;;;;;;;;;6181214;23;20087;-62
2023/07/07 01:35:10;;;;;;;23.33;5.45;;;;;;;;;;6180261;23;20048;-57
2023/07/07 01:37:59;;;;;;;22.75;5.57;;;;;;;;;;6180000;23;20021;-56
2023/07/07 01:40:58;;;;;;;21.75;5.70;;;;;;;;;;6180236;23;20396;-57
2023/07/07 01:43:45;;;;;;;16.08;5.70;;;;;;;;;;6179957;23;20025;-58
2023/07/07 01:46:43;;;;;;;21.17;5.20;;;;;;;;;;6179695;23;20087;-56
2023/07/07 01:49:52;;;;;;;15.63;5.38;;;;;;;;;;6180137;23;20025;-59
2023/07/07 01:52:47;;;;;;;22.00;5.82;;;;;;;;;;6179979;23;20029;-60
2023/07/07 01:55:37;;;;;;;17.67;5.82;;;;;;;;;;6180437;23;20080;-60
2023/07/07 01:58:32;;;;;;;15.18;4.93;;;;;;;;;;6180459;23;20025;-60
2023/07/07 02:01:20;;;;;;;16.60;5.72;;;;;;;;;;6179697;23;20025;-60
2023/07/07 02:04:13;;;;;;;16.30;5.53;;;;;;;;;;6180486;23;20071;-58
2023/07/07 02:07:07;;;;;;;22.17;5.82;;;;;;;;;;6177808;23;20583;-57
2023/07/07 02:10:01;;;;;;;17.52;5.32;;;;;;;;;;6178792;23;20021;-55
2023/07/07 02:12:48;;;;;;;21.88;5.72;;;;;;;;;;6180904;23;20029;-53
2023/07/07 02:15:42;;;;;;;19.63;6.00;;;;;;;;;;6179941;23;20091;-56
2023/07/07 02:18:29;;;;;;;11.82;5.00;;;;;;;;;;6179597;23;20883;-57
2023/07/07 02:21:23;;;;;;;18.13;5.28;;;;;;;;;;6179703;23;20025;-56
2023/07/07 02:24:10;;;;;;;23.33;5.68;;;;;;;;;;6178843;23;20025;-56
2023/07/07 02:27:04;;;;;;;19.63;6.20;;;;;;;;;;6180210;23;20021;-58
2023/07/07 02:29:51;;;;;;;19.73;5.47;;;;;;;;;;6177435;23;20704;-58
2023/07/07 02:32:46;;;;;;;17.00;5.78;;;;;;;;;;6179400;23;20091;-61
2023/07/07 02:35:32;;;;;;;17.73;5.75;;;;;;;;;;6178915;23;20021;-57
2023/07/07 02:38:26;;;;;;;20.02;5.28;;;;;;;;;;6179577;23;20017;-49
2023/07/07 02:41:21;;;;;;;26.08;6.43;;;;;;;;;;6179494;23;20025;-52
2023/07/07 02:44:14;;;;;;;22.30;6.05;;;;;;;;;;6179546;23;20079;-53
2023/07/07 02:47:01;;;;;;;19.55;5.70;;;;;;;;;;6180128;23;20386;-53
2023/07/07 02:49:58;;;;;;;18.83;5.38;;;;;;;;;;6180084;23;20017;-51
2023/07/07 02:52:46;;;;;;;21.00;5.68;;;;;;;;;;6179753;23;20087;-63
2023/07/07 02:55:39;;;;;;;18.23;5.28;;;;;;;;;;6179007;23;20029;-63
2023/07/07 02:58:26;;;;;;;27.65;6.03;;;;;;;;;;6179180;23;20409;-63
2023/07/07 03:01:21;;;;;;;23.48;5.38;;;;;;;;;;6179415;23;20398;-59
2023/07/07 03:04:08;;;;;;;15.43;5.40;;;;;;;;;;6179978;23;20024;-59
2023/07/07 03:07:08;;;;;;;19.08;5.95;;;;;;;;;;6176906;23;20021;-59
2023/07/07 03:09:55;;;;;;;23.58;5.78;;;;;;;;;;6179191;23;20079;-59
2023/07/07 03:12:49;;;;;;;14.63;5.55;;;;;;;;;;6180061;23;20031;-59
2023/07/07 03:15:39;;;;;;;26.80;6.35;;;;;;;;;;6177708;23;20355;-59
2023/07/07 03:18:33;;;;;;;20.25;5.82;;;;;;;;;;6180381;23;20024;-59
2023/07/07 03:21:27;;;;;;;19.60;5.40;;;;;;;;;;6178888;23;20052;-57
2023/07/07 03:24:15;;;;;;;12.32;4.88;;;;;;;;;;6179517;23;20087;-56
2023/07/07 03:27:09;;;;;;;21.58;5.07;;;;;;;;;;6178982;23;20076;-57
2023/07/07 03:29:56;;;;;;;17.10;5.63;;;;;;;;;;6178175;23;20466;-65
2023/07/07 03:32:50;;;;;;;14.85;5.30;;;;;;;;;;6179467;23;20025;-59
2023/07/07 03:35:38;;;;;;;15.98;4.82;;;;;;;;;;6177697;23;20021;-59
2023/07/07 03:38:31;;;;;;;19.73;5.22;;;;;;;;;;6179598;23;20021;-59
2023/07/07 03:41:26;;;;;;;19.10;5.82;;;;;;;;;;6178781;23;20021;-57
2023/07/07 03:44:20;;;;;;;19.17;4.78;;;;;;;;;;6178419;23;20028;-58
2023/07/07 03:47:07;;;;;;;13.48;4.78;;;;;;;;;;6180324;23;20038;-59
2023/07/07 03:50:01;;;;;;;16.02;4.72;;;;;;;;;;6178441;23;20048;-60
2023/07/07 03:52:48;;;;;;;14.48;4.95;;;;;;;;;;6179992;23;20080;-59
2023/07/07 03:55:42;;;;;;;17.05;4.95;;;;;;;;;;6178657;23;20481;-60
2023/07/07 03:58:29;;;;;;;14.18;4.18;;;;;;;;;;6179505;23;20029;-49
2023/07/07 04:01:23;;;;;;;12.45;3.92;;;;;;;;;;6178214;23;20021;-62
2023/07/07 04:04:10;;;;;;;11.65;3.97;;;;;;;;;;6179031;23;20024;-64
2023/07/07 04:07:11;;;;;;;12.82;3.85;;;;;;;;;;6177259;23;20025;-63
2023/07/07 04:10:05;;;;;;;14.75;3.63;;;;;;;;;;6179377;23;20354;-63
2023/07/07 04:12:59;;;;;;;10.68;3.67;;;;;;;;;;6178312;23;20021;-63
2023/07/07 04:15:56;;;;;;;14.23;3.70;;;;;;;;;;6179553;23;20021;-59
2023/07/07 04:18:51;;;;;;;10.55;3.60;;;;;;;;;;6178161;23;20025;-59
2023/07/07 04:21:38;;;;;;;11.18;3.05;;;;;;;;;;6178706;23;20022;-59
2023/07/07 04:24:32;;;;;;;11.48;3.22;;;;;;;;;;6179477;23;20466;-59
2023/07/07 04:27:19;;;;;;;10.18;2.75;;;;;;;;;;6179516;23;20025;-64
2023/07/07 04:30:13;;;;;;;10.07;2.92;;;;;;;;;;6179192;23;20028;-58
2023/07/07 04:33:00;;;;;;;11.15;3.15;;;;;;;;;;6178979;23;20021;-57
2023/07/07 04:35:59;;;;;;;11.25;3.20;;;;;;;;;;6177747;23;20021;-56
2023/07/07 04:38:46;;;;;;;11.35;3.03;;;;;;;;;;6179565;23;20021;-57
2023/07/07 04:41:40;;;;;;;11.98;2.83;;;;;;;;;;6178930;23;20466;-57
2023/07/07 04:44:27;;;;;;;10.68;3.00;;;;;;;;;;6180289;23;20021;-62
2023/07/07 04:47:21;;;;;;;10.55;3.40;;;;;;;;;;6179201;23;20029;-63
2023/07/07 04:50:15;;;;;;;10.48;3.00;;;;;;;;;;6180313;23;20029;-64
2023/07/07 04:53:09;;;;;;;15.38;3.28;;;;;;;;;;6180787;23;20327;-63
2023/07/07 04:56:09;;;;;;;11.85;2.95;;;;;;;;;;6181290;23;20068;-59
2023/07/07 04:59:03;;;;;;;10.40;3.65;;;;;;;;;;6179997;23;20351;-60
2023/07/07 05:01:56;;;;;;;9.93;2.90;;;;;;;;;;6180376;23;20028;-60
2023/07/07 05:04:50;;;;;;;14.57;3.40;;;;;;;;;;6159206;23;20394;-60
2023/07/07 05:07:51;;;;;;;16.15;3.50;;;;;;;;;;6179573;23;20032;-61
2023/07/07 05:10:39;;;;;;;13.07;2.88;;;;;;;;;;6179384;23;20021;-60
2023/07/07 05:13:32;;;;;;;10.95;3.30;;;;;;;;;;6180053;23;20470;-58
2023/07/07 05:16:20;;;;;;;13.57;3.65;;;;;;;;;;6181057;23;20032;-56
2023/07/07 05:19:14;;;;;;;7.45;2.72;;;;;;;;;;6181028;23;20021;-58
2023/07/07 05:22:08;;;;;;;11.13;2.55;;;;;;;;;;6179569;23;20025;-59
2023/07/07 05:25:02;;;;;;;9.65;2.58;;;;;;;;;;6180654;23;20025;-58
2023/07/07 05:27:50;;;;;;;13.10;3.47;;;;;;;;;;6179672;23;20025;-63
2023/07/07 05:30:43;;;;;;;9.20;2.85;;;;;;;;;;6180982;23;20025;-63
2023/07/07 05:33:31;;;;;;;8.82;2.85;;;;;;;;;;6180955;23;20071;-63
2023/07/07 05:36:24;;;;;;;10.63;2.65;;;;;;;;;;6179378;23;20128;-63
2023/07/07 05:39:18;;;;;;;16.10;3.45;;;;;;;;;;6180625;23;20021;-63
2023/07/07 05:42:12;;;;;;;20.27;3.50;;;;;;;;;;6180608;23;20080;-64
2023/07/07 05:45:06;;;;;;;10.27;2.85;;;;;;;;;;6181252;23;20044;-64
2023/07/07 05:48:00;;;;;;;7.00;2.67;;;;;;;;;;6180669;23;20033;-63
2023/07/07 05:51:01;;;;;;;11.13;2.83;;;;;;;;;;6179021;23;20021;-47
2023/07/07 05:53:48;;;;;;;12.07;3.15;;;;;;;;;;6180702;23;20119;-59
2023/07/07 05:56:49;;;;;;;9.25;2.40;;;;;;;;;;6178609;23;20543;-57
2023/07/07 05:59:35;;;;;;;14.48;3.30;;;;;;;;;;6179900;23;20021;-59
2023/07/07 06:02:29;;;;;;;10.00;2.90;;;;;;;;;;6179846;23;20731;-57
2023/07/07 06:05:17;;;;;;;11.70;2.83;;;;;;;;;;6180180;23;20327;-58
2023/07/07 06:08:17;;;;;;;5.93;2.30;;;;;;;;;;6179909;23;20037;-58
2023/07/07 06:11:04;;;;;;;15.35;2.85;;;;;;;;;;6180051;23;20028;-57
2023/07/07 06:13:58;;;;;;;11.18;2.30;;;;;;;;;;6180602;23;20048;-59
2023/07/07 06:16:45;;;;;;;9.90;2.60;;;;;;;;;;6179100;23;20056;-59
2023/07/07 06:19:39;;;;;;;12.55;3.15;;;;;;;;;;6180017;23;20587;-57
2023/07/07 06:22:26;;;;;;;11.45;2.55;;;;;;;;;;6179555;23;20025;-57
2023/07/07 06:25:20;;;;;;;8.05;2.85;;;;;;;;;;6179368;23;20084;-58
2023/07/07 06:28:17;;;;;;;12.25;2.45;;;;;;;;;;6180767;23;20021;-59
2023/07/07 06:31:11;;;;;;;10.10;2.30;;;;;;;;;;6179516;23;20076;-58
2023/07/07 06:34:05;;;;;;;7.70;2.20;;;;;;;;;;6180454;23;20429;-53
2023/07/07 06:36:52;;;;;;;6.85;2.33;;;;;;;;;;6179018;23;20398;-58
2023/07/07 06:39:46;;;;;;;9.50;2.15;;;;;;;;;;6180452;23;20028;-57
2023/07/07 06:42:33;;;;;;;8.82;2.35;;;;;;;;;;6178657;23;20017;-55
2023/07/07 06:45:27;;;;;;;8.27;2.20;;;;;;;;;;6180032;23;20467;-56
2023/07/07 06:48:14;;;;;;;9.52;2.50;;;;;;;;;;6180126;23;20025;-50
2023/07/07 06:51:10;;;;;;;8.32;2.00;;;;;;;;;;6178867;23;20071;-56
2023/07/07 06:53:55;;;;;;;6.72;2.20;;;;;;;;;;6179932;23;20092;-58
2023/07/07 06:56:49;;;;;;;7.10;2.25;;;;;;;;;;6178456;23;20462;-59
2023/07/07 06:59:37;;;;;;;7.25;2.20;;;;;;;;;;6179252;23;20067;-58
2023/07/07 07:02:30;;;;;;;10.05;2.78;;;;;;;;;;6179932;23;20029;-59
2023/07/07 07:05:18;;;;;;;5.90;2.00;;;;;;;;;;6179886;23;20099;-59
2023/07/07 07:08:18;;;;;;;8.25;2.05;;;;;;;;;;6179424;23;20789;-50
2023/07/07 07:11:06;;;;;;;9.55;2.20;;;;;;;;;;6179431;23;20021;-50
2023/07/07 07:13:59;;;;;;;7.97;2.20;;;;;;;;;;6179778;23;20064;-50
2023/07/07 07:16:47;;;;;;;9.52;2.25;;;;;;;;;;6179467;23;20029;-61
2023/07/07 07:19:40;;;;;;;4.90;1.80;;;;;;;;;;6178653;23;20025;-56
2023/07/07 07:22:28;;;;;;;9.32;2.22;;;;;;;;;;6179256;23;20398;-57
2023/07/07 07:25:21;;;;;;;5.63;2.10;;;;;;;;;;6179869;23;20029;-58
2023/07/07 07:28:09;;;;;;;9.07;2.40;;;;;;;;;;6179129;23;20025;-58
2023/07/07 07:31:02;;;;;;;12.13;2.38;;;;;;;;;;6179464;23;20017;-56
2023/07/07 07:33:51;;;;;;;6.88;1.95;;;;;;;;;;6177719;23;20021;-58
2023/07/07 07:36:45;;;;;;;6.53;1.95;;;;;;;;;;6179435;23;20067;-57
2023/07/07 07:39:33;;;;;;;5.55;2.10;;;;;;;;;;6179388;23;20028;-56
2023/07/07 07:42:26;;;;;;;6.15;2.13;;;;;;;;;;6178823;23;20076;-57
2023/07/07 07:45:16;;;;;;;5.57;2.05;;;;;;;;;;6180034;23;20075;-61
2023/07/07 07:48:09;;;;;;;9.32;2.17;;;;;;;;;;6178252;23;20067;-64
2023/07/07 07:50:57;;;;;;;9.10;2.65;;;;;;;;;;6179702;23;20025;-65
2023/07/07 07:54:07;;;;;;;6.20;2.10;;;;;;;;;;6179608;23;20032;-64
2023/07/07 07:56:54;;;;;;;7.45;2.33;;;;;;;;;;6178872;23;20056;-66
2023/07/07 07:59:49;;;;;;;7.30;2.03;;;;;;;;;;6178442;23;20029;-65
2023/07/07 08:02:37;;;;;;;9.88;2.08;;;;;;;;;;6178501;23;20021;-65
2023/07/07 08:05:31;;;;;;;8.48;2.10;;;;;;;;;;6179393;23;20486;-59
2023/07/07 08:08:24;;;;;;;7.30;2.15;;;;;;;;;;6178987;23;20048;-59
2023/07/07 08:11:20;;;;;;;8.88;2.40;;;;;;;;;;6178022;23;20083;-59
2023/07/07 08:14:11;;;;;;;6.88;2.13;;;;;;;;;;6180125;23;20017;-57
2023/07/07 08:17:09;;;;;;;5.85;1.98;;;;;;;;;;6178896;23;20033;-49
2023/07/07 08:19:56;;;;;;;7.60;2.30;;;;;;;;;;6178286;23;20039;-48
2023/07/07 08:22:50;;;;;;;6.88;2.15;;;;;;;;;;6179296;23;20021;-47
2023/07/07 08:25:38;;;;;;;5.85;1.83;;;;;;;;;;6180231;23;20021;-49
2023/07/07 08:28:34;;;;;;;4.07;1.60;;;;;;;;;;6182711;23;20029;-47
2023/07/07 08:31:28;;;;;;;4.70;1.80;;;;;;;;;;6182199;23;20402;-57
2023/07/07 08:34:23;;;;;;;12.15;1.90;;;;;;;;;;6181255;23;20462;-56
2023/07/07 08:37:22;;;;;;;7.65;2.00;;;;;;;;;;6180609;23;20064;-57
2023/07/07 08:40:13;;;;;;;4.73;1.50;;;;;;;;;;6179972;23;20021;-52
2023/07/07 08:43:08;;;;;;;8.48;1.80;;;;;;;;;;6181491;23;20025;-52
2023/07/07 08:45:58;;;;;;;7.72;2.38;;;;;;;;;;6180619;23;20052;-59
2023/07/07 08:49:07;;;;;;;6.38;1.67;;;;;;;;;;6180570;23;20021;-59
2023/07/07 08:52:02;;;;;;;6.30;1.90;;;;;;;;;;6180831;23;20320;-57
2023/07/07 08:55:15;;;;;;;5.75;1.55;;;;;;;;;;6179561;23;20323;-58
2023/07/07 08:58:23;;;;;;;7.00;1.73;;;;;;;;;;6127659;23;20024;-58
2023/07/07 09:01:36;;;;;;;7.60;1.80;;;;;;;;;;6180672;23;20021;-61
2023/07/07 09:04:31;;;;;;;4.30;1.55;;;;;;;;;;6180753;23;20029;-62
2023/07/07 09:07:49;;;;;;;4.32;1.60;;;;;;;;;;6178937;23;20060;-60
2023/07/07 09:10:43;;;;;;;4.43;1.48;;;;;;;;;;6179952;23;20025;-49
2023/07/07 09:13:33;;;;;;;5.57;1.50;;;;;;;;;;6179392;23;20459;-50
2023/07/07 09:16:34;;;;;;;3.53;1.70;;;;;;;;;;6179870;23;20100;-49
2023/07/07 09:19:24;;;;;;;7.28;1.35;;;;;;;;;;6180076;23;20017;-51
2023/07/07 09:22:23;;;;;;;6.60;1.63;;;;;;;;;;6180876;23;20020;-48
2023/07/07 09:25:21;;;;;;;6.15;1.63;;;;;;;;;;6180987;23;20039;-53
2023/07/07 09:28:20;;;;;;;6.13;1.35;;;;;;;;;;6180651;23;20049;-58
2023/07/07 09:31:30;;;;;;;4.10;1.42;;;;;;;;;;6179423;23;20025;-57
2023/07/07 09:34:17;;;;;;;3.80;1.48;;;;;;;;;;6180868;23;20659;-56
2023/07/07 09:37:22;;;;;;;3.90;1.60;;;;;;;;;;6179356;23;20024;-55
2023/07/07 09:40:18;;;;;;;5.63;1.30;;;;;;;;;;6179815;23;20056;-56
2023/07/07 09:43:18;;;;;;;4.07;1.20;;;;;;;;;;6179401;23;20179;-51
2023/07/07 09:46:21;;;;;;;5.18;1.48;;;;;;;;;;6179941;23;20796;-50
2023/07/07 09:49:26;;;;;;;2.83;1.17;;;;;;;;;;6179621;23;20028;-51
2023/07/07 09:52:22;;;;;;;6.03;1.45;;;;;;;;;;6180046;23;20548;-51
2023/07/07 09:55:25;;;;;;;5.57;1.30;;;;;;;;;;6180872;23;20021;-49
2023/07/07 09:58:17;;;;;;;1.75;1.00;;;;;;;;;;6180266;23;20029;-53
2023/07/07 10:01:11;;;;;;;2.53;1.10;;;;;;;;;;6179340;23;20079;-51
2023/07/07 10:04:12;;;;;;;2.67;1.20;;;;;;;;;;6180868;23;20489;-49
2023/07/07 10:07:14;;;;;;;8.23;1.23;;;;;;;;;;6178699;23;20025;-59
2023/07/07 10:10:13;;;;;;;2.90;1.10;;;;;;;;;;6180504;23;20072;-59
2023/07/07 10:13:09;;;;;;;5.35;1.30;;;;;;;;;;6179891;23;20021;-56
2023/07/07 10:16:07;;;;;;;2.97;1.48;;;;;;;;;;6179056;23;20047;-59
2023/07/07 10:18:54;;;;;;;3.38;1.20;;;;;;;;;;6180080;23;20549;-56
2023/07/07 10:21:48;;;;;;;3.90;1.27;;;;;;;;;;6179079;23;20029;-57
2023/07/07 10:24:36;;;;;;;4.07;1.58;;;;;;;;;;6179917;23;20025;-57
2023/07/07 10:27:30;;;;;;;2.35;1.15;;;;;;;;;;6180205;23;20386;-61
2023/07/07 10:30:17;;;;;;;5.03;1.60;;;;;;;;;;6179769;23;20032;-62
2023/07/07 10:33:13;;;;;;;5.60;1.60;;;;;;;;;;6179909;23;20028;-61
2023/07/07 10:36:16;;;;;;;4.72;1.15;;;;;;;;;;6180511;23;20541;-58
2023/07/07 10:39:10;;;;;;;;;;;;;;;;;;6179940;23;20020;-59
2023/07/07 10:41:58;;;;;;;4.95;1.48;;;;;;;;;;6179953;23;19943;-58
2023/07/07 10:44:52;;;;;;;4.03;1.27;;;;;;;;;;6178428;23;20322;-59
2023/07/07 10:47:39;;;;;;;3.05;1.38;;;;;;;;;;6179022;23;20355;-59
2023/07/07 10:50:34;;;;;;;3.33;1.50;;;;;;;;;;6179843;23;20059;-58
2023/07/07 10:53:29;;;;;;;3.65;1.50;;;;;;;;;;6179669;23;20079;-59
2023/07/07 10:56:25;;;;;;;9.93;1.48;;;;;;;;;;6180356;23;20099;-56
2023/07/07 10:59:29;;;;;;;11.25;2.25;;;;;;;;;;6179922;23;20351;-57
2023/07/07 11:02:22;;;;;;;3.65;1.50;;;;;;;;;;6178676;23;20033;-58
2023/07/07 11:05:19;;;;;;;5.43;1.75;;;;;;;;;;6180401;23;20021;-59
2023/07/07 11:08:41;;;;;;;5.15;1.73;;;;;;;;;;6178297;23;20021;-64
2023/07/07 11:11:28;;;;;;;6.82;2.00;;;;;;;;;;6179823;23;20037;-64
2023/07/07 11:14:32;;;;;;;6.13;1.60;;;;;;;;;;6180105;23;20028;-65
2023/07/07 11:17:38;;;;;;;5.22;1.67;;;;;;;;;;6179114;23;20056;-64
2023/07/07 11:20:35;;;;;;;5.53;1.45;;;;;;;;;;6179548;23;20473;-65
2023/07/07 11:23:30;;;;;;;8.20;2.13;;;;;;;;;;6179310;23;20094;-58
2023/07/07 11:26:45;;;;;;;6.25;1.80;;;;;;;;;;6179054;23;20561;-56
2023/07/07 11:29:48;;;;;;;8.27;1.80;;;;;;;;;;6139514;23;20458;-58
2023/07/07 11:32:48;;;;;;;6.60;1.85;;;;;;;;;;6178609;23;20021;-57
2023/07/07 11:35:53;;;;;;;4.22;1.83;;;;;;;;;;6179755;23;20024;-53
2023/07/07 11:39:01;;;;;;;13.18;1.85;;;;;;;;;;6179058;23;20028;-51
2023/07/07 11:42:08;;;;;;;6.88;1.88;;;;;;;;;;6179153;23;20079;-50
2023/07/07 11:45:13;;;;;;;3.47;1.50;;;;;;;;;;6179815;23;20075;-50
2023/07/07 11:48:25;;;;;;;7.50;1.85;;;;;;;;;;6179144;23;20029;-50
2023/07/07 11:51:28;;;;;;;8.77;1.83;;;;;;;;;;6180615;23;20048;-60
2023/07/07 11:54:21;;;;;;;10.40;1.88;;;;;;;;;;6178920;23;20056;-60
2023/07/07 11:57:15;;;;;;;3.95;1.33;;;;;;;;;;6179181;23;20021;-60
2023/07/07 12:00:14;;;;;;;5.38;1.88;;;;;;;;;;6178360;23;20025;-61
2023/07/07 12:03:24;;;;;;;6.63;1.60;;;;;;;;;;6179775;23;20024;-55
2023/07/07 12:06:40;;;;;;;6.15;1.90;;;;;;;;;;6176521;23;20036;-60
2023/07/07 12:09:42;;;;;;;5.68;1.90;;;;;;;;;;6179230;23;20029;-61
2023/07/07 12:12:38;;;;;;;4.57;1.80;;;;;;;;;;6178425;23;20084;-60
2023/07/07 12:15:25;;;;;;;8.43;2.13;;;;;;;;;;6177979;23;20025;-60
2023/07/07 12:18:25;;;;;;;8.60;2.00;;;;;;;;;;6177594;23;20025;-60
2023/07/07 12:21:12;;;;;;;5.20;1.70;;;;;;;;;;6179630;23;20474;-55
2023/07/07 12:24:16;;;;;;;8.52;2.17;;;;;;;;;;6178957;23;20071;-55
2023/07/07 12:27:22;;;;;;;9.32;2.20;;;;;;;;;;6179112;23;20021;-57
2023/07/07 12:30:25;;;;;;;4.90;1.58;;;;;;;;;;6179865;23;20025;-53
2023/07/07 12:33:20;;;;;;;7.75;2.10;;;;;;;;;;6178820;23;20023;-57
2023/07/07 12:36:15;;;;;;;5.95;1.63;;;;;;;;;;6179044;23;20021;-57
2023/07/07 12:39:03;;;;;;;4.10;1.30;;;;;;;;;;6180001;23;20033;-58
2023/07/07 12:41:59;;;;;;;3.78;1.65;;;;;;;;;;6178769;23;20021;-58
2023/07/07 12:44:53;;;;;;;4.75;1.40;;;;;;;;;;6178909;23;20083;-57
2023/07/07 12:47:41;;;;;;;7.43;1.70;;;;;;;;;;6178656;23;20021;-57
2023/07/07 12:50:43;;;;;;;6.20;1.73;;;;;;;;;;6178822;23;20028;-58
2023/07/07 12:53:32;;;;;;;5.70;1.55;;;;;;;;;;6179603;23;20021;-57
2023/07/07 12:56:30;;;;;;;4.47;1.70;;;;;;;;;;6178827;23;20029;-57
2023/07/07 12:59:40;;;;;;;6.95;2.10;;;;;;;;;;6178774;23;20021;-56
2023/07/07 13:02:27;;;;;;;5.82;1.70;;;;;;;;;;6178942;23;20048;-55
2023/07/07 13:05:22;;;;;;;9.20;2.00;;;;;;;;;;6178362;23;20052;-58
2023/07/07 13:08:36;;;;;;;5.50;1.67;;;;;;;;;;6175521;23;20353;-55
2023/07/07 13:11:30;;;;;;;6.63;2.00;;;;;;;;;;6181088;23;20029;-56
2023/07/07 13:14:32;;;;;;;3.97;1.70;;;;;;;;;;6180870;23;20354;-56
2023/07/07 13:17:27;;;;;;;5.47;2.35;;;;;;;;;;6179832;23;20028;-60
2023/07/07 13:20:15;;;;;;;4.63;1.48;;;;;;;;;;6180383;23;20544;-60
2023/07/07 13:23:21;;;;;;;4.82;1.67;;;;;;;;;;6180288;23;20024;-60
2023/07/07 13:26:30;;;;;;;7.88;1.90;;;;;;;;;;6181573;23;20079;-58
2023/07/07 13:29:27;;;;;;;6.38;2.15;;;;;;;;;;6179779;23;20021;-57
2023/07/07 13:32:46;;;;;;;9.65;1.70;;;;;;;;;;6180347;23;20025;-55
2023/07/07 13:35:42;;;;;;;4.88;1.73;;;;;;;;;;6126027;23;20083;-56
2023/07/07 13:38:40;;;;;;;6.25;1.90;;;;;;;;;;6180239;23;20024;-56
2023/07/07 13:41:28;;;;;;;5.80;1.85;;;;;;;;;;6179854;23;20532;-56
2023/07/07 13:44:25;;;;;;;10.48;2.00;;;;;;;;;;6180537;23;20079;-57
2023/07/07 13:47:15;;;;;;;5.00;1.75;;;;;;;;;;6180089;23;20025;-56
2023/07/07 13:50:13;;;;;;;8.43;2.45;;;;;;;;;;6179885;23;20067;-55
2023/07/07 13:53:03;;;;;;;7.93;1.85;;;;;;;;;;6179938;23;20020;-56
2023/07/07 13:55:57;;;;;;;6.45;1.90;;;;;;;;;;6181451;23;20405;-53
2023/07/07 13:58:46;;;;;;;7.10;1.90;;;;;;;;;;6179101;23;20466;-49
2023/07/07 14:01:40;;;;;;;5.93;2.00;;;;;;;;;;6179996;23;20017;-50
2023/07/07 14:04:41;;;;;;;6.15;2.13;;;;;;;;;;6180496;23;20105;-50
2023/07/07 14:07:44;;;;;;;8.90;2.03;;;;;;;;;;6177709;23;20024;-49
2023/07/07 14:10:35;;;;;;;7.00;2.10;;;;;;;;;;6180444;23;20083;-52
2023/07/07 14:13:32;;;;;;;5.63;2.20;;;;;;;;;;6180027;23;20071;-61
2023/07/07 14:16:25;;;;;;;6.93;2.13;;;;;;;;;;6179918;23;20021;-61
2023/07/07 14:19:27;;;;;;;7.03;2.03;;;;;;;;;;6180371;23;20029;-61
2023/07/07 14:22:14;;;;;;;4.60;2.00;;;;;;;;;;6178192;23;20617;-61
2023/07/07 14:25:13;;;;;;;3.80;1.92;;;;;;;;;;6180904;23;20021;-55
2023/07/07 14:28:00;;;;;;;7.25;1.92;;;;;;;;;;6178851;23;20024;-55
2023/07/07 14:31:00;;;;;;;8.82;2.10;;;;;;;;;;6180019;23;20071;-57
2023/07/07 14:33:54;;;;;;;7.60;1.85;;;;;;;;;;6178185;23;20021;-57
2023/07/07 14:36:48;;;;;;;6.50;1.73;;;;;;;;;;6180221;23;20048;-56
2023/07/07 14:39:37;;;;;;;5.40;1.83;;;;;;;;;;6180304;23;20048;-56
2023/07/07 14:42:31;;;;;;;4.90;1.80;;;;;;;;;;6178640;23;20021;-57
2023/07/07 14:45:24;;;;;;;6.47;2.00;;;;;;;;;;6180215;23;20029;-57
2023/07/07 14:48:21;;;;;;;6.47;1.73;;;;;;;;;;6178879;23;20482;-58
2023/07/07 14:51:09;;;;;;;6.05;1.80;;;;;;;;;;6179830;23;20017;-58
2023/07/07 14:54:04;;;;;;;3.85;2.00;;;;;;;;;;6178665;23;20056;-52
2023/07/07 14:56:53;;;;;;;4.85;1.90;;;;;;;;;;6179532;23;20029;-58
2023/07/07 14:59:47;;;;;;;6.38;1.83;;;;;;;;;;6179521;23;20501;-57
2023/07/07 15:02:36;;;;;;;4.70;1.50;;;;;;;;;;6179392;23;20029;-57
2023/07/07 15:05:30;;;;;;;10.18;1.70;;;;;;;;;;6178249;23;20348;-57
2023/07/07 15:08:27;;;;;;;4.88;1.75;;;;;;;;;;6177920;23;20059;-58
2023/07/07 15:11:39;;;;;;;5.15;1.80;;;;;;;;;;6180717;23;20049;-50
2023/07/07 15:14:30;;;;;;;6.03;1.95;;;;;;;;;;6178506;23;20117;-52
2023/07/07 15:17:24;;;;;;;7.13;1.80;;;;;;;;;;6179057;23;20033;-51
2023/07/07 15:20:16;;;;;;;6.07;2.05;;;;;;;;;;6179514;23;20060;-57
2023/07/07 15:23:09;;;;;;;6.28;1.70;;;;;;;;;;6179678;23;20025;-56
2023/07/07 15:26:00;;;;;;;5.95;2.08;;;;;;;;;;6179048;23;20060;-55
2023/07/07 15:28:54;;;;;;;4.32;2.10;;;;;;;;;;6179150;23;20506;-57
2023/07/07 15:31:42;;;;;;;8.85;1.92;;;;;;;;;;6178761;23;20470;-56
2023/07/07 15:34:35;;;;;;;7.90;2.10;;;;;;;;;;6178511;23;20481;-56
2023/07/07 15:37:23;;;;;;;7.28;1.98;;;;;;;;;;6178750;23;20417;-54
2023/07/07 15:40:18;;;;;;;6.88;2.42;;;;;;;;;;6180154;23;20025;-56
2023/07/07 15:43:05;;;;;;;;;;;;;;;;;;6179632;23;20044;-57
2023/07/07 15:45:59;;;;;;;10.45;2.25;;;;;;;;;;6179478;23;19916;-56
2023/07/07 15:48:46;;;;;;;8.85;2.25;;;;;;;;;;6178631;23;20021;-58
2023/07/07 15:51:41;;;;;;;8.52;2.55;;;;;;;;;;6179793;23;20131;-61
2023/07/07 15:54:28;;;;;;;;;;;;;;;;;;6178027;23;20370;-61
2023/07/07 15:57:21;;;;;;;6.03;2.10;;;;;;;;;;6179331;23;19920;-61
2023/07/07 16:00:28;;;;;;;9.30;2.25;;;;;;;;;;6179308;23;20025;-61
2023/07/07 16:03:19;;;;;;;6.00;2.28;;;;;;;;;;6177483;23;20067;-61
2023/07/07 16:06:07;;;;;;;10.88;2.80;;;;;;;;;;6179217;23;20028;-60
2023/07/07 16:09:18;;;;;;;7.40;2.15;;;;;;;;;;6120217;23;20029;-50
2023/07/07 16:12:10;;;;;;;8.02;2.15;;;;;;;;;;6119651;23;20026;-54
2023/07/07 16:15:04;;;;;;;5.13;1.60;;;;;;;;;;6120177;23;20340;-47
2023/07/07 16:17:53;;;;;;;8.73;2.10;;;;;;;;;;6119533;23;20097;-61
2023/07/07 16:20:48;;;;;;;9.30;2.30;;;;;;;;;;6119600;23;20085;-48
2023/07/07 16:23:35;;;;;;;7.95;2.35;;;;;;;;;;6118745;23;20029;-51
2023/07/07 16:26:35;;;;;;;4.85;1.95;;;;;;;;;;6120339;23;20077;-50
2023/07/07 16:29:23;;;;;;;5.28;1.90;;;;;;;;;;6118822;23;20543;-46
2023/07/07 16:32:17;;;;;;;5.22;1.70;;;;;;;;;;6120094;23;20033;-51
2023/07/07 16:35:12;;;;;;;13.13;2.55;;;;;;;;;;6119987;23;20049;-54
2023/07/07 16:38:10;;;;;;;11.70;2.35;;;;;;;;;;6119629;23;20471;-57
2023/07/07 16:40:58;;;;;;;6.43;1.70;;;;;;;;;;6120425;23;20039;-57
2023/07/07 16:43:52;;;;;;;8.15;1.88;;;;;;;;;;6118933;23;20021;-57
2023/07/07 16:46:39;;;;;;;5.93;2.13;;;;;;;;;;6122148;23;20396;-57
2023/07/07 16:49:33;;;;;;;9.93;2.30;;;;;;;;;;6120478;23;20026;-46
2023/07/07 16:52:20;;;;;;;7.70;2.58;;;;;;;;;;6121327;23;20033;-48
2023/07/07 16:55:14;;;;;;;6.78;2.25;;;;;;;;;;6122361;23;20026;-51
2023/07/07 16:58:10;;;;;;;7.35;2.10;;;;;;;;;;6122170;23;20022;-50
2023/07/07 17:01:04;;;;;;;8.25;2.50;;;;;;;;;;6121937;23;20030;-51
2023/07/07 17:03:51;;;;;;;10.02;3.00;;;;;;;;;;6121630;23;20025;-76
2023/07/07 17:06:32;;;;;;;11.18;3.10;;;;;;;;;;6141558;23;20033;-76
2023/07/07 17:09:00;;;;;;;9.60;2.80;;;;;;;;;;6122297;23;20097;-76
2023/07/07 17:11:33;;;;;;;11.77;3.13;;;;;;;;;;6122418;23;20073;-77
2023/07/07 17:14:01;;;;;;;13.25;3.25;;;;;;;;;;6121765;23;20033;-75
2023/07/07 17:16:30;;;;;;;10.23;3.00;;;;;;;;;;6122103;23;20463;-76
2023/07/07 17:19:22;;;;;;;10.50;2.92;;;;;;;;;;6122480;23;20097;-77